Time;durP1;ratioP1;P1;durP2;ratioP2;P2;SDS_P1;SDS_P2;PMS_P1;PMS_P2;Temp;Humidity;BMP_temperature;BMP_pressure;BME280_temperature;BME280_humidity;BME280_pressure;Samples;Min_cycle;Max_cycle;Signal;HPM_P1;HPM_P2
2021/05/27 00:01:27;;;;;;;5.40;4.00;;;10.00;99.90;;;;;;5081015;28;20427;-70
2021/05/27 00:04:12;;;;;;;4.13;3.60;;;9.90;99.90;;;;;;5090479;28;20512;-69
2021/05/27 00:06:57;;;;;;;6.33;3.87;;;10.00;99.90;;;;;;5085506;28;20421;-70
2021/05/27 00:09:44;;;;;;;9.50;3.90;;;10.10;99.90;;;;;;5094088;28;21127;-70
2021/05/27 00:12:28;;;;;;;8.20;4.00;;;10.10;99.90;;;;;;5094380;28;20408;-69
2021/05/27 00:15:15;;;;;;;4.77;3.60;;;10.20;99.90;;;;;;5074053;28;20774;-70
2021/05/27 00:18:01;;;;;;;5.13;3.63;;;10.10;99.90;;;;;;5072299;28;20486;-69
2021/05/27 00:20:46;;;;;;;4.80;4.00;;;9.90;99.90;;;;;;5074606;28;20522;-70
2021/05/27 00:23:30;;;;;;;6.53;4.30;;;9.80;99.90;;;;;;5091211;28;20542;-70
2021/05/27 00:26:17;;;;;;;10.80;4.43;;;9.80;99.90;;;;;;5076095;28;20426;-69
2021/05/27 00:29:02;;;;;;;5.53;3.87;;;9.80;99.90;;;;;;5087649;28;20481;-70
2021/05/27 00:31:48;;;;;;;8.27;4.03;;;9.90;99.90;;;;;;5093775;28;20831;-70
2021/05/27 00:34:33;;;;;;;6.10;3.63;;;9.90;99.90;;;;;;5093624;28;20444;-70
2021/05/27 00:37:19;;;;;;;5.90;3.53;;;9.90;99.90;;;;;;5089781;28;20483;-70
2021/05/27 00:40:06;;;;;;;6.33;3.23;;;9.90;99.90;;;;;;5098503;28;20495;-69
2021/05/27 00:42:52;;;;;;;7.53;4.60;;;9.90;99.90;;;;;;5099512;28;20488;-70
2021/05/27 00:45:37;;;;;;;5.70;3.80;;;9.80;99.90;;;;;;5081379;28;20431;-70
2021/05/27 00:51:26;;;;;;;6.47;3.70;;;9.80;99.90;;;;;;5087361;28;20550;-70
2021/05/27 00:54:13;;;;;;;5.50;4.80;;;9.80;99.90;;;;;;5092373;28;20534;-70
2021/05/27 00:56:58;;;;;;;8.23;4.20;;;9.90;99.90;;;;;;5085139;28;20487;-70
2021/05/27 00:59:44;;;;;;;5.10;4.60;;;9.90;99.90;;;;;;5086537;28;20422;-70
2021/05/27 01:02:29;;;;;;;10.70;3.70;;;9.90;99.90;;;;;;5092607;28;20884;-70
2021/05/27 01:05:15;;;;;;;4.90;3.13;;;9.80;99.90;;;;;;5089790;28;20486;-69
2021/05/27 01:08:01;;;;;;;10.53;4.40;;;9.90;99.90;;;;;;5085736;28;20573;-70
2021/05/27 01:10:45;;;;;;;6.30;3.70;;;10.00;99.90;;;;;;5082051;28;20554;-70
2021/05/27 01:13:32;;;;;;;6.90;3.90;;;10.10;99.90;;;;;;5093771;28;20475;-70
2021/05/27 01:16:20;;;;;;;4.73;4.00;;;10.20;99.90;;;;;;5091763;28;20512;-70
2021/05/27 01:19:06;;;;;;;5.23;4.40;;;10.30;99.90;;;;;;5090935;28;20499;-70
2021/05/27 01:21:52;;;;;;;6.43;4.77;;;10.20;99.90;;;;;;5080543;28;20445;-70
2021/05/27 01:24:37;;;;;;;5.00;4.00;;;10.30;99.90;;;;;;5089115;28;20889;-70
2021/05/27 01:27:22;;;;;;;7.13;3.80;;;10.30;99.90;;;;;;5090226;28;20934;-69
2021/05/27 01:30:09;;;;;;;6.13;4.03;;;10.40;99.90;;;;;;5099273;28;20877;-69
2021/05/27 01:32:54;;;;;;;4.97;4.47;;;10.40;99.90;;;;;;5086623;28;20789;-71
2021/05/27 01:35:39;;;;;;;6.63;4.00;;;10.40;99.90;;;;;;5087400;28;20648;-70
2021/05/27 01:38:28;;;;;;;7.57;4.57;;;10.50;99.90;;;;;;5087465;28;20456;-69
2021/05/27 01:41:13;;;;;;;8.30;5.13;;;10.40;99.90;;;;;;5075145;28;20427;-70
2021/05/27 01:43:58;;;;;;;7.83;4.97;;;10.40;99.90;;;;;;5094179;28;20808;-70
2021/05/27 01:46:43;;;;;;;7.17;4.60;;;10.40;99.90;;;;;;5092759;28;21004;-70
2021/05/27 01:49:28;;;;;;;7.63;4.90;;;10.40;99.90;;;;;;5072096;28;20436;-70
2021/05/27 01:52:14;;;;;;;6.20;4.50;;;10.30;99.90;;;;;;5093707;28;20433;-69
2021/05/27 01:54:59;;;;;;;7.20;3.87;;;10.20;99.90;;;;;;5095274;28;20477;-69
2021/05/27 01:57:45;;;;;;;6.47;4.20;;;10.20;99.90;;;;;;5072597;28;20455;-70
2021/05/27 02:00:30;;;;;;;9.80;4.50;;;10.20;99.90;;;;;;5091662;28;20444;-69
2021/05/27 02:03:15;;;;;;;5.47;4.10;;;10.30;99.90;;;;;;5094484;28;20526;-70
2021/05/27 02:06:01;;;;;;;5.70;4.80;;;10.30;99.90;;;;;;5091560;28;20475;-71
2021/05/27 02:11:47;;;;;;;4.93;4.40;;;10.20;99.90;;;;;;5090586;28;21167;-70
2021/05/27 02:14:33;;;;;;;11.30;6.37;;;10.30;99.90;;;;;;5089039;28;20485;-70
2021/05/27 02:17:18;;;;;;;5.70;3.80;;;10.30;99.90;;;;;;5071804;28;20430;-70
2021/05/27 02:20:04;;;;;;;4.73;3.83;;;10.20;99.90;;;;;;5091867;28;20436;-70
2021/05/27 02:22:49;;;;;;;5.67;4.30;;;10.20;99.90;;;;;;5080595;28;20445;-69
2021/05/27 02:25:34;;;;;;;11.17;4.43;;;10.10;99.90;;;;;;5097184;28;20481;-70
2021/05/27 02:28:20;;;;;;;8.70;6.00;;;10.20;99.90;;;;;;5080944;28;20499;-69
2021/05/27 02:31:05;;;;;;;8.60;5.40;;;10.10;99.90;;;;;;5087703;28;20818;-70
2021/05/27 02:33:51;;;;;;;6.47;4.77;;;10.10;99.90;;;;;;5091161;28;20483;-69
2021/05/27 02:36:36;;;;;;;6.13;4.40;;;10.10;99.90;;;;;;5085864;28;20477;-70
2021/05/27 02:39:21;;;;;;;6.47;4.77;;;10.20;99.90;;;;;;5072390;28;20397;-70
2021/05/27 02:42:07;;;;;;;7.80;4.77;;;10.10;99.90;;;;;;5095834;28;20508;-69
2021/05/27 02:44:53;;;;;;;5.77;4.90;;;10.10;99.90;;;;;;5077377;28;20473;-70
2021/05/27 02:47:38;;;;;;;6.10;5.43;;;10.10;99.90;;;;;;5082907;28;20453;-70
2021/05/27 02:50:23;;;;;;;12.13;5.20;;;10.20;99.90;;;;;;5091704;28;20451;-69
2021/05/27 02:53:09;;;;;;;14.73;5.13;;;10.10;99.90;;;;;;5083002;28;20943;-69
2021/05/27 02:55:54;;;;;;;7.83;5.00;;;10.10;99.90;;;;;;5089138;28;20492;-70
2021/05/27 02:58:40;;;;;;;6.83;5.30;;;10.00;99.90;;;;;;5091310;28;20449;-70
2021/05/27 03:01:25;;;;;;;5.40;4.80;;;10.00;99.90;;;;;;5090837;28;20916;-70
2021/05/27 03:04:11;;;;;;;14.13;5.03;;;10.00;99.90;;;;;;5097509;28;20841;-69
2021/05/27 03:06:56;;;;;;;9.90;5.93;;;10.00;99.90;;;;;;5070661;28;20435;-69
2021/05/27 03:09:41;;;;;;;10.33;7.00;;;10.00;99.90;;;;;;5097948;28;20485;-69
2021/05/27 03:12:26;;;;;;;8.10;4.80;;;9.90;99.90;;;;;;5072119;28;20461;-70
2021/05/27 03:15:11;;;;;;;7.53;6.73;;;9.80;99.90;;;;;;5089615;28;20439;-70
2021/05/27 03:18:01;;;;;;;9.93;6.10;;;9.80;99.90;;;;;;5082287;28;20420;-71
2021/05/27 03:20:46;;;;;;;20.27;6.40;;;9.90;99.90;;;;;;5076899;28;20424;-70
2021/05/27 03:23:31;;;;;;;6.50;5.07;;;9.90;99.90;;;;;;5079362;28;20426;-69
2021/05/27 03:26:17;;;;;;;6.40;4.80;;;10.00;99.90;;;;;;5087933;28;20490;-69
2021/05/27 03:29:02;;;;;;;7.30;5.23;;;10.00;99.90;;;;;;5082606;28;20422;-70
2021/05/27 03:31:47;;;;;;;6.83;4.83;;;10.00;99.90;;;;;;5084383;28;20387;-69
2021/05/27 03:34:34;;;;;;;5.77;4.90;;;9.90;99.90;;;;;;5088759;28;20879;-69
2021/05/27 03:37:19;;;;;;;6.93;4.80;;;9.80;99.90;;;;;;5091370;28;20441;-70
2021/05/27 03:40:12;;;;;;;7.77;5.83;;;9.80;99.90;;;;;;5078605;28;20968;-70
2021/05/27 03:42:58;;;;;;;7.63;5.57;;;9.80;99.90;;;;;;5080718;28;20456;-69
2021/05/27 03:45:43;;;;;;;7.47;5.60;;;9.80;99.90;;;;;;5083468;28;20412;-69
2021/05/27 03:48:28;;;;;;;6.97;5.80;;;9.90;99.90;;;;;;5096840;28;20969;-70
2021/05/27 03:51:14;;;;;;;7.30;5.80;;;10.00;99.90;;;;;;5073160;28;20445;-69
2021/05/27 03:53:59;;;;;;;11.13;6.23;;;9.90;99.90;;;;;;5091184;28;20474;-69
2021/05/27 03:56:44;;;;;;;7.60;5.17;;;10.00;99.90;;;;;;5083269;28;20999;-69
2021/05/27 04:02:33;;;;;;;7.47;5.60;;;10.10;99.90;;;;;;5090432;28;20510;-69
2021/05/27 04:08:22;;;;;;;8.90;5.80;;;10.10;99.90;;;;;;5103843;28;20459;-75
2021/05/27 04:11:07;;;;;;;7.80;6.27;;;10.20;99.90;;;;;;5106160;28;20470;-75
2021/05/27 04:13:52;;;;;;;5.77;5.20;;;10.20;99.90;;;;;;5096612;28;20392;-75
2021/05/27 04:16:38;;;;;;;9.70;6.90;;;10.20;99.90;;;;;;5097381;28;20522;-75
2021/05/27 04:19:22;;;;;;;7.27;5.33;;;10.20;99.90;;;;;;5094787;28;20592;-74
2021/05/27 04:22:07;;;;;;;7.20;5.30;;;10.30;99.90;;;;;;5090985;28;20825;-75
2021/05/27 04:24:54;;;;;;;7.40;5.17;;;10.10;99.90;;;;;;5095638;28;20443;-75
2021/05/27 04:27:39;;;;;;;5.70;5.13;;;10.20;99.90;;;;;;5094222;28;20981;-75
2021/05/27 04:30:25;;;;;;;7.80;5.57;;;10.10;99.90;;;;;;5094213;28;20473;-74
2021/05/27 04:33:11;;;;;;;10.00;5.33;;;10.20;99.90;;;;;;5093662;28;20401;-75
2021/05/27 04:35:56;;;;;;;7.80;5.30;;;10.20;99.90;;;;;;5103495;28;20416;-75
2021/05/27 04:38:42;;;;;;;6.53;5.30;;;10.20;99.90;;;;;;5089748;28;20461;-75
2021/05/27 04:41:28;;;;;;;9.20;4.90;;;10.20;99.90;;;;;;5105296;28;20460;-75
2021/05/27 04:44:13;;;;;;;6.30;5.53;;;10.20;99.90;;;;;;5104211;28;20419;-75
2021/05/27 04:46:58;;;;;;;5.63;5.03;;;10.10;99.90;;;;;;5096890;28;20480;-75
2021/05/27 04:49:43;;;;;;;8.00;5.17;;;10.30;99.90;;;;;;5101800;28;20497;-75
2021/05/27 04:52:29;;;;;;;6.00;5.40;;;10.40;99.90;;;;;;5094592;28;20465;-75
2021/05/27 04:55:15;;;;;;;5.87;5.27;;;10.50;99.90;;;;;;5105161;28;20498;-75
2021/05/27 04:58:01;;;;;;;6.70;5.10;;;10.50;99.90;;;;;;5086195;28;20812;-75
2021/05/27 05:00:47;;;;;;;12.53;5.83;;;10.40;99.90;;;;;;5092907;28;20412;-75
2021/05/27 05:03:32;;;;;;;6.80;4.90;;;10.40;99.90;;;;;;5104929;28;20395;-75
2021/05/27 05:06:17;;;;;;;8.37;5.27;;;10.50;99.90;;;;;;5096551;28;21008;-74
2021/05/27 05:09:03;;;;;;;8.20;5.60;;;10.40;99.90;;;;;;5094968;28;20456;-75
2021/05/27 05:11:48;;;;;;;7.00;4.40;;;10.40;99.90;;;;;;5093140;28;20462;-75
2021/05/27 05:14:34;;;;;;;6.50;5.43;;;10.40;99.90;;;;;;5104560;28;20399;-75
2021/05/27 05:17:19;;;;;;;5.10;4.60;;;10.50;99.90;;;;;;5099370;28;21048;-74
2021/05/27 05:20:05;;;;;;;6.00;5.40;;;10.50;99.90;;;;;;5099289;28;20427;-75
2021/05/27 05:22:51;;;;;;;5.77;5.17;;;10.50;99.90;;;;;;5096484;28;20440;-74
2021/05/27 05:25:38;;;;;;;5.13;4.63;;;10.60;99.90;;;;;;5092117;28;20466;-75
2021/05/27 05:28:23;;;;;;;9.07;5.30;;;10.50;99.90;;;;;;5104027;28;21063;-75
2021/05/27 05:31:09;;;;;;;8.93;4.90;;;10.50;99.90;;;;;;5107282;28;20949;-74
2021/05/27 05:33:55;;;;;;;6.57;4.97;;;10.50;99.90;;;;;;5100705;28;20524;-74
2021/05/27 05:36:40;;;;;;;7.00;4.80;;;10.40;99.90;;;;;;5099556;28;20497;-73
2021/05/27 05:39:25;;;;;;;7.73;4.90;;;10.40;99.90;;;;;;5100552;28;20458;-75
2021/05/27 05:42:10;;;;;;;6.43;5.63;;;10.40;99.90;;;;;;5094275;28;20489;-74
2021/05/27 05:44:55;;;;;;;5.57;4.77;;;10.40;99.90;;;;;;5103016;28;20476;-75
2021/05/27 05:47:43;;;;;;;8.67;4.80;;;10.50;99.90;;;;;;5104231;28;20420;-74
2021/05/27 05:50:48;;;;;;;7.57;4.73;;;10.50;99.90;;;;;;5103726;28;21064;-74
2021/05/27 05:53:34;;;;;;;9.10;4.50;;;10.40;99.90;;;;;;5092115;28;20465;-75
2021/05/27 05:56:20;;;;;;;11.30;5.10;;;10.50;99.90;;;;;;5101496;28;20443;-75
2021/05/27 05:59:05;;;;;;;8.57;5.37;;;10.40;99.90;;;;;;5098497;28;20472;-74
2021/05/27 06:01:50;;;;;;;9.90;4.30;;;10.40;99.90;;;;;;5086688;28;20461;-75
2021/05/27 06:04:36;;;;;;;6.77;4.93;;;10.30;99.90;;;;;;5082717;28;20799;-75
2021/05/27 06:07:21;;;;;;;9.83;4.60;;;10.30;99.90;;;;;;5103012;28;20428;-74
2021/05/27 06:10:08;;;;;;;6.50;4.40;;;10.30;99.90;;;;;;5112170;28;20795;-76
2021/05/27 06:12:55;;;;;;;4.73;3.80;;;10.30;99.90;;;;;;5102940;28;20433;-75
2021/05/27 06:15:42;;;;;;;11.50;4.33;;;10.30;99.90;;;;;;5099194;28;20469;-75
2021/05/27 06:18:27;;;;;;;6.10;4.73;;;10.30;99.90;;;;;;5090539;28;20449;-75
2021/05/27 06:21:13;;;;;;;7.90;4.40;;;10.30;99.90;;;;;;5094125;28;20430;-75
2021/05/27 06:23:58;;;;;;;4.83;4.30;;;10.40;99.90;;;;;;5088555;28;20572;-75
2021/05/27 06:26:43;;;;;;;6.73;4.13;;;10.50;99.90;;;;;;5090748;28;21161;-76
2021/05/27 06:29:28;;;;;;;5.63;4.20;;;10.50;99.90;;;;;;5105725;28;20409;-75
2021/05/27 06:32:14;;;;;;;9.10;4.90;;;10.60;99.90;;;;;;5107158;28;20431;-75
2021/05/27 06:34:58;;;;;;;7.60;4.30;;;10.50;99.90;;;;;;5095086;28;20457;-75
2021/05/27 06:37:45;;;;;;;5.03;4.53;;;10.50;99.90;;;;;;5097499;28;20391;-75
2021/05/27 06:40:31;;;;;;;9.80;4.50;;;10.60;99.90;;;;;;5112449;28;20422;-74
2021/05/27 06:43:15;;;;;;;10.70;5.20;;;10.60;99.90;;;;;;5112458;28;20475;-75
2021/05/27 06:46:01;;;;;;;10.03;4.50;;;10.40;99.90;;;;;;5092843;28;20461;-75
2021/05/27 06:48:46;;;;;;;5.77;4.20;;;10.40;99.90;;;;;;5092084;28;20462;-76
2021/05/27 06:51:32;;;;;;;7.73;5.10;;;10.50;99.90;;;;;;5098707;28;20476;-75
2021/05/27 06:54:19;;;;;;;6.40;4.40;;;10.60;99.90;;;;;;5092557;28;20870;-75
2021/05/27 06:57:05;;;;;;;5.73;3.97;;;10.60;99.90;;;;;;5095289;28;21000;-75
2021/05/27 06:59:50;;;;;;;6.27;5.13;;;10.60;99.90;;;;;;5095431;28;20440;-76
2021/05/27 07:02:35;;;;;;;12.33;4.23;;;10.60;99.90;;;;;;5071385;28;20908;-76
2021/05/27 07:05:22;;;;;;;6.97;4.63;;;10.70;99.90;;;;;;5089025;28;20460;-73
2021/05/27 07:08:07;;;;;;;7.60;5.13;;;10.70;99.90;;;;;;5091173;28;20424;-72
2021/05/27 07:10:53;;;;;;;9.30;5.43;;;10.60;99.90;;;;;;5091454;28;21107;-74
2021/05/27 07:13:38;;;;;;;6.60;3.80;;;10.60;99.90;;;;;;5091421;28;20496;-76
2021/05/27 07:16:23;;;;;;;5.37;3.73;;;10.70;99.90;;;;;;5099070;28;20468;-76
2021/05/27 07:19:08;;;;;;;6.83;3.93;;;10.70;99.90;;;;;;5089328;28;20825;-76
2021/05/27 07:21:53;;;;;;;5.30;4.10;;;10.80;99.90;;;;;;5093865;28;20824;-76
2021/05/27 07:24:38;;;;;;;12.97;4.07;;;10.80;99.90;;;;;;5094585;28;20867;-76
2021/05/27 07:27:24;;;;;;;7.03;4.77;;;10.80;99.90;;;;;;5090468;28;20453;-75
2021/05/27 07:30:10;;;;;;;4.60;3.70;;;10.90;99.90;;;;;;5098774;28;20518;-77
2021/05/27 07:32:55;;;;;;;7.17;5.07;;;10.90;99.90;;;;;;5085074;28;20453;-76
2021/05/27 07:35:41;;;;;;;7.47;3.97;;;10.80;99.90;;;;;;5089571;28;20530;-76
2021/05/27 07:38:26;;;;;;;5.10;4.00;;;10.90;99.90;;;;;;5101741;28;20776;-75
2021/05/27 07:41:11;;;;;;;6.37;3.90;;;10.90;99.90;;;;;;5115800;28;20458;-76
2021/05/27 07:43:57;;;;;;;8.17;4.93;;;11.00;99.90;;;;;;5097816;28;20400;-76
2021/05/27 07:46:42;;;;;;;5.47;4.40;;;11.00;99.90;;;;;;5095076;28;20986;-76
2021/05/27 07:49:28;;;;;;;4.80;4.17;;;11.00;99.90;;;;;;5094253;28;20422;-75
2021/05/27 07:52:13;;;;;;;10.53;3.83;;;11.10;99.90;;;;;;5095043;28;20471;-75
2021/05/27 07:54:58;;;;;;;9.77;3.73;;;11.10;99.90;;;;;;5094744;28;20854;-76
2021/05/27 07:57:44;;;;;;;4.77;3.90;;;11.20;99.90;;;;;;5094862;28;20468;-75
2021/05/27 08:00:30;;;;;;;6.37;4.23;;;11.20;99.90;;;;;;5092440;28;20468;-75
2021/05/27 08:03:15;;;;;;;8.93;4.70;;;11.20;99.90;;;;;;5108291;28;20422;-75
2021/05/27 08:06:00;;;;;;;12.43;5.13;;;11.20;99.90;;;;;;5093772;28;21056;-75
2021/05/27 08:08:45;;;;;;;8.07;4.73;;;11.30;99.90;;;;;;5087767;28;20441;-75
2021/05/27 08:11:31;;;;;;;6.40;5.00;;;11.30;99.90;;;;;;5092019;28;20999;-75
2021/05/27 08:14:16;;;;;;;5.43;4.57;;;11.40;99.90;;;;;;5108954;28;20424;-75
2021/05/27 08:17:02;;;;;;;7.13;4.30;;;11.40;99.90;;;;;;5100722;28;20456;-75
2021/05/27 08:19:47;;;;;;;9.40;4.90;;;11.40;99.90;;;;;;5093717;28;20434;-75
2021/05/27 08:22:33;;;;;;;5.23;4.33;;;11.40;99.90;;;;;;5092235;28;20446;-75
2021/05/27 08:25:18;;;;;;;7.10;4.27;;;11.40;99.90;;;;;;5103255;28;20790;-74
2021/05/27 08:28:03;;;;;;;5.70;3.90;;;11.50;99.90;;;;;;5100966;28;20441;-75
2021/05/27 08:30:48;;;;;;;7.83;4.87;;;11.50;99.90;;;;;;5095153;28;20450;-75
2021/05/27 08:33:34;;;;;;;6.43;4.40;;;11.60;99.90;;;;;;5094079;28;20408;-75
2021/05/27 08:36:19;;;;;;;5.13;4.43;;;11.60;99.90;;;;;;5099774;28;20441;-75
2021/05/27 08:39:06;;;;;;;8.03;5.20;;;11.70;99.90;;;;;;5093818;28;20928;-75
2021/05/27 08:41:52;;;;;;;9.30;4.57;;;11.70;99.90;;;;;;5106753;28;20499;-75
2021/05/27 08:44:39;;;;;;;7.00;4.63;;;11.70;99.90;;;;;;5082355;28;20888;-75
2021/05/27 08:47:24;;;;;;;8.43;5.20;;;11.70;99.90;;;;;;5096910;28;20440;-75
2021/05/27 08:50:11;;;;;;;6.80;5.50;;;11.60;99.90;;;;;;5096250;28;20448;-74
2021/05/27 08:52:56;;;;;;;10.07;5.40;;;11.50;99.90;;;;;;5099095;28;20421;-74
2021/05/27 08:55:42;;;;;;;9.27;5.20;;;11.50;99.90;;;;;;5085026;28;20578;-75
2021/05/27 08:58:27;;;;;;;6.20;4.63;;;11.50;99.90;;;;;;5094498;28;20441;-75
2021/05/27 09:01:12;;;;;;;6.33;5.40;;;11.60;99.90;;;;;;5106800;28;20421;-75
2021/05/27 09:03:57;;;;;;;7.17;4.63;;;11.70;99.90;;;;;;5092853;28;20445;-75
2021/05/27 09:06:51;;;;;;;6.50;4.83;;;11.80;99.90;;;;;;5090366;28;20531;-76
2021/05/27 09:09:51;;;;;;;6.93;4.63;;;11.90;99.90;;;;;;5100146;28;20994;-74
2021/05/27 09:12:37;;;;;;;8.20;5.10;;;12.00;99.90;;;;;;5105043;28;20460;-76
2021/05/27 09:15:23;;;;;;;5.70;4.37;;;12.20;99.90;;;;;;5107662;28;20508;-76
2021/05/27 09:18:08;;;;;;;8.07;5.07;;;12.20;99.90;;;;;;5109356;28;20840;-76
2021/05/27 09:20:54;;;;;;;7.83;4.80;;;12.20;99.90;;;;;;5098419;28;20423;-76
2021/05/27 09:23:47;;;;;;;6.70;5.17;;;12.30;99.90;;;;;;5092600;28;20525;-76
2021/05/27 09:26:32;;;;;;;6.90;5.40;;;12.30;99.90;;;;;;5104873;28;20445;-76
2021/05/27 09:29:18;;;;;;;8.13;5.73;;;12.30;99.90;;;;;;5094107;28;20500;-76
2021/05/27 09:32:06;;;;;;;12.53;5.77;;;12.30;99.90;;;;;;5100341;28;20508;-74
2021/05/27 09:34:52;;;;;;;6.60;5.50;;;12.30;99.90;;;;;;5090259;28;20793;-73
2021/05/27 09:37:37;;;;;;;6.70;5.20;;;12.30;99.90;;;;;;5091161;28;20500;-73
2021/05/27 09:40:36;;;;;;;6.87;6.10;;;12.40;99.90;;;;;;5105509;28;20433;-74
2021/05/27 09:43:23;;;;;;;9.73;5.80;;;12.30;99.90;;;;;;5102069;28;20434;-74
2021/05/27 09:46:08;;;;;;;8.73;6.37;;;12.30;99.90;;;;;;5109221;28;20439;-74
2021/05/27 09:49:03;;;;;;;7.20;6.10;;;12.40;99.90;;;;;;5094442;28;20421;-73
2021/05/27 09:51:49;;;;;;;9.97;6.80;;;12.50;99.90;;;;;;5095365;28;20451;-73
2021/05/27 09:54:50;;;;;;;8.40;6.90;;;12.50;99.90;;;;;;5099870;28;20474;-73
2021/05/27 09:57:37;;;;;;;7.73;5.63;;;12.50;99.90;;;;;;5086513;28;20480;-75
2021/05/27 10:00:27;;;;;;;10.17;6.10;;;12.60;99.90;;;;;;5102601;28;20799;-75
2021/05/27 10:03:27;;;;;;;7.30;5.87;;;12.50;99.90;;;;;;5097182;28;20944;-77
2021/05/27 10:08:49;;;;;;;8.60;5.63;;;12.50;99.90;;;;;;5047748;28;20447;-69
2021/05/27 10:11:34;;;;;;;7.00;4.57;;;12.70;99.90;;;;;;5051505;28;20463;-69
2021/05/27 10:14:23;;;;;;;6.00;3.80;;;12.80;99.90;;;;;;5065733;28;20422;-69
2021/05/27 10:17:09;;;;;;;8.70;4.47;;;13.00;99.90;;;;;;5052937;28;20849;-69
2021/05/27 10:19:54;;;;;;;5.60;3.57;;;13.20;99.90;;;;;;5042235;28;20452;-69
2021/05/27 10:22:40;;;;;;;15.30;4.50;;;13.30;99.90;;;;;;5044010;28;20430;-69
2021/05/27 10:25:26;;;;;;;4.60;3.60;;;13.30;99.90;;;;;;5041716;28;20431;-69
2021/05/27 10:28:15;;;;;;;8.23;5.37;;;13.40;99.90;;;;;;5047304;28;21117;-69
2021/05/27 10:31:03;;;;;;;6.60;4.67;;;13.40;99.90;;;;;;5041929;28;20518;-69
2021/05/27 10:33:49;;;;;;;6.53;5.13;;;13.60;99.90;;;;;;5045299;28;20423;-69
2021/05/27 10:36:43;;;;;;;6.90;5.17;;;13.80;99.90;;;;;;5048853;28;20900;-69
2021/05/27 10:39:32;;;;;;;6.50;5.13;;;13.80;99.90;;;;;;5050295;28;20515;-69
2021/05/27 10:42:17;;;;;;;7.30;5.70;;;14.00;99.90;;;;;;5033794;28;20395;-69
2021/05/27 10:45:10;;;;;;;7.70;5.73;;;14.10;99.90;;;;;;5043449;28;20459;-69
2021/05/27 10:48:28;;;;;;;8.00;4.50;;;14.20;99.90;;;;;;5042189;28;20471;-69
2021/05/27 10:51:24;;;;;;;9.70;5.23;;;14.30;99.90;;;;;;5042315;28;20467;-69
2021/05/27 10:54:14;;;;;;;9.30;5.00;;;14.40;99.90;;;;;;5041873;28;20434;-68
2021/05/27 10:56:58;;;;;;;7.40;4.50;;;14.30;99.90;;;;;;5041566;28;20487;-69
2021/05/27 10:59:44;;;;;;;7.10;5.10;;;14.20;99.90;;;;;;5044610;28;20991;-69
2021/05/27 11:02:29;;;;;;;9.57;4.67;;;14.20;99.90;;;;;;5048355;28;20452;-69
2021/05/27 11:05:15;;;;;;;6.23;4.70;;;14.20;99.90;;;;;;5039193;28;20406;-69
2021/05/27 11:08:20;;;;;;;7.20;4.53;;;14.30;99.90;;;;;;5049150;28;20504;-69
2021/05/27 11:11:37;;;;;;;14.20;4.93;;;14.20;99.90;;;;;;5050745;28;20620;-69
2021/05/27 11:14:24;;;;;;;4.90;3.97;;;14.20;99.90;;;;;;5035619;28;20425;-69
2021/05/27 11:17:22;;;;;;;6.53;4.90;;;14.30;99.90;;;;;;5047502;28;20502;-69
2021/05/27 11:20:10;;;;;;;6.20;4.70;;;14.30;99.90;;;;;;5051028;28;20958;-69
2021/05/27 11:23:08;;;;;;;7.60;4.90;;;14.30;99.90;;;;;;5050278;28;20483;-69
2021/05/27 11:26:16;;;;;;;12.03;4.50;;;14.30;99.90;;;;;;5037324;28;22314;-69
2021/05/27 11:29:13;;;;;;;6.33;4.43;;;14.20;99.90;;;;;;5048562;28;20896;-69
2021/05/27 11:31:58;;;;;;;5.37;4.30;;;14.10;99.90;;;;;;5053415;28;20500;-69
2021/05/27 11:34:58;;;;;;;9.37;5.10;;;14.00;99.90;;;;;;5044612;28;20478;-69
2021/05/27 11:37:45;;;;;;;6.30;4.30;;;14.00;99.90;;;;;;5046312;28;20447;-69
2021/05/27 11:40:31;;;;;;;8.87;4.70;;;14.00;99.90;;;;;;5045625;28;20456;-69
2021/05/27 11:43:19;;;;;;;9.10;5.20;;;14.10;99.90;;;;;;5050995;28;20429;-69
2021/05/27 11:46:06;;;;;;;8.50;4.53;;;14.30;99.90;;;;;;5049627;28;20414;-69
2021/05/27 11:48:59;;;;;;;6.83;4.20;;;14.40;99.90;;;;;;5042119;28;20432;-69
2021/05/27 11:51:44;;;;;;;9.67;4.93;;;14.60;99.90;;;;;;5050763;28;20467;-69
2021/05/27 11:54:29;;;;;;;5.13;4.20;;;14.70;99.90;;;;;;5045142;28;20442;-69
2021/05/27 11:57:14;;;;;;;9.50;5.07;;;14.70;99.90;;;;;;5044886;28;20458;-69
2021/05/27 12:00:01;;;;;;;5.80;4.23;;;14.50;99.90;;;;;;5052636;28;20480;-69
2021/05/27 12:02:48;;;;;;;5.60;4.80;;;14.50;99.90;;;;;;5049140;28;20975;-69
2021/05/27 12:05:34;;;;;;;7.20;4.17;;;14.50;99.90;;;;;;5049012;28;20423;-69
2021/05/27 12:08:19;;;;;;;4.80;3.63;;;14.50;99.90;;;;;;5042887;28;20480;-69
2021/05/27 12:11:04;;;;;;;11.70;4.60;;;14.40;99.90;;;;;;5052989;28;20462;-69
2021/05/27 12:13:58;;;;;;;4.70;3.10;;;14.50;99.90;;;;;;5043658;28;20502;-69
2021/05/27 12:16:45;;;;;;;5.47;3.17;;;14.50;99.90;;;;;;5043940;28;20607;-69
2021/05/27 12:19:30;;;;;;;4.77;3.23;;;14.50;99.90;;;;;;5050405;28;20478;-69
2021/05/27 12:22:15;;;;;;;4.30;2.73;;;14.50;99.90;;;;;;5048224;28;20522;-69
2021/05/27 12:25:08;;;;;;;4.23;2.93;;;14.50;99.90;;;;;;5048149;28;20394;-69
2021/05/27 12:27:55;;;;;;;4.13;2.60;;;14.30;99.90;;;;;;5048466;28;20529;-69
2021/05/27 12:30:43;;;;;;;4.63;2.90;;;14.20;99.90;;;;;;5045707;28;20461;-69
2021/05/27 12:33:30;;;;;;;3.97;3.40;;;14.30;99.90;;;;;;5049176;28;20427;-69
2021/05/27 12:36:15;;;;;;;4.77;2.90;;;14.40;99.90;;;;;;5045829;28;20720;-69
2021/05/27 12:39:01;;;;;;;3.80;3.40;;;14.50;99.90;;;;;;5043508;28;20511;-69
2021/05/27 12:41:51;;;;;;;3.83;3.23;;;14.50;99.90;;;;;;5052595;28;20813;-69
2021/05/27 12:44:44;;;;;;;7.50;3.87;;;14.60;99.90;;;;;;5047135;28;20469;-69
2021/05/27 12:47:30;;;;;;;4.40;4.00;;;14.60;99.90;;;;;;5048331;28;20979;-69
2021/05/27 12:50:23;;;;;;;8.63;4.20;;;14.70;99.90;;;;;;5048846;28;20854;-69
2021/05/27 12:53:22;;;;;;;5.40;4.20;;;14.60;99.90;;;;;;5041386;28;20908;-69
2021/05/27 12:56:13;;;;;;;3.47;3.00;;;14.70;99.90;;;;;;5051077;28;20421;-69
2021/05/27 12:59:08;;;;;;;5.00;4.13;;;14.60;99.90;;;;;;5041354;28;20419;-69
2021/05/27 13:01:57;;;;;;;6.37;3.30;;;14.50;99.90;;;;;;5043044;28;20397;-69
2021/05/27 13:04:42;;;;;;;6.27;2.83;;;14.20;99.90;;;;;;5051195;28;20422;-69
2021/05/27 13:07:28;;;;;;;3.33;2.70;;;13.90;99.90;;;;;;5048820;28;20504;-69
2021/05/27 13:10:27;;;;;;;3.23;2.10;;;13.60;99.90;;;;;;5053492;28;20533;-69
2021/05/27 13:13:12;;;;;;;3.63;2.40;;;13.50;99.90;;;;;;5048510;28;20443;-69
2021/05/27 13:15:57;;;;;;;3.43;2.23;;;13.40;99.90;;;;;;5057587;28;20929;-69
2021/05/27 13:18:49;;;;;;;3.73;2.67;;;13.40;99.90;;;;;;5044208;28;20457;-69
2021/05/27 13:21:46;;;;;;;4.10;3.10;;;13.40;99.90;;;;;;5043486;28;21067;-69
2021/05/27 13:24:34;;;;;;;5.03;2.97;;;13.50;99.90;;;;;;5047957;28;20461;-69
2021/05/27 13:27:26;;;;;;;6.80;2.87;;;13.50;99.90;;;;;;5043076;28;20970;-69
2021/05/27 13:30:17;;;;;;;3.80;3.10;;;13.50;99.90;;;;;;5042371;28;20547;-69
2021/05/27 13:33:04;;;;;;;3.63;2.53;;;13.50;99.90;;;;;;5050273;28;20594;-69
2021/05/27 13:35:54;;;;;;;4.23;2.83;;;13.40;99.90;;;;;;5045342;28;20434;-69
2021/05/27 13:38:39;;;;;;;6.40;3.00;;;13.60;99.90;;;;;;5047900;28;20417;-69
2021/05/27 13:41:25;;;;;;;6.50;3.33;;;13.70;99.90;;;;;;5055984;28;21011;-69
2021/05/27 13:44:11;;;;;;;4.20;3.10;;;13.80;99.90;;;;;;5057117;28;20461;-69
2021/05/27 13:46:56;;;;;;;6.33;3.00;;;13.80;99.90;;;;;;5044389;28;20481;-69
2021/05/27 13:49:41;;;;;;;4.30;3.40;;;13.80;99.90;;;;;;5056833;28;20429;-69
2021/05/27 13:52:27;;;;;;;5.17;3.23;;;13.80;99.90;;;;;;5051351;28;21030;-69
2021/05/27 13:55:14;;;;;;;6.00;4.00;;;13.90;99.90;;;;;;5045950;28;20429;-69
2021/05/27 13:58:01;;;;;;;6.33;3.50;;;13.80;99.90;;;;;;5053210;28;20503;-70
2021/05/27 14:00:46;;;;;;;6.23;3.50;;;13.60;99.90;;;;;;5043166;28;20443;-70
2021/05/27 14:03:31;;;;;;;4.73;3.93;;;13.50;99.90;;;;;;5054608;28;20833;-70
2021/05/27 14:06:16;;;;;;;4.70;3.87;;;13.60;99.90;;;;;;5033870;28;20450;-71
2021/05/27 14:09:03;;;;;;;4.87;3.87;;;13.70;99.90;;;;;;5043498;28;20832;-70
2021/05/27 14:11:48;;;;;;;4.80;3.60;;;13.70;99.90;;;;;;5046720;28;20576;-70
2021/05/27 14:14:34;;;;;;;6.50;4.10;;;13.80;99.90;;;;;;5043483;28;20425;-70
2021/05/27 14:17:19;;;;;;;6.53;4.13;;;13.80;99.90;;;;;;5038820;28;20942;-70
2021/05/27 14:20:06;;;;;;;10.37;4.20;;;13.70;99.90;;;;;;5043208;28;20455;-69
2021/05/27 14:22:52;;;;;;;6.27;3.77;;;13.70;99.90;;;;;;5047861;28;20471;-70
2021/05/27 14:25:37;;;;;;;11.33;4.40;;;13.60;99.90;;;;;;5042641;28;20442;-70
2021/05/27 14:28:22;;;;;;;6.33;4.57;;;13.60;99.90;;;;;;5050215;28;20434;-70
2021/05/27 14:31:09;;;;;;;7.67;4.77;;;13.70;99.90;;;;;;5049127;28;20959;-70
2021/05/27 14:33:54;;;;;;;5.03;4.33;;;13.80;99.90;;;;;;5033950;28;20508;-70
2021/05/27 14:36:38;;;;;;;6.00;5.23;;;13.70;99.90;;;;;;5035122;28;20511;-70
2021/05/27 14:39:24;;;;;;;6.70;4.73;;;13.80;99.90;;;;;;5024539;28;20498;-70
2021/05/27 14:42:10;;;;;;;4.87;4.37;;;13.90;99.90;;;;;;5032359;28;20463;-70
2021/05/27 14:44:55;;;;;;;6.87;5.03;;;14.00;99.90;;;;;;5044183;28;20414;-70